Terminal Aerodrome Forecast
Issued by NWS Austin/San Antonio, TX

Home | Current Version | Previous Version | Text Only | Print | Product List | Glossary On
Versions: 1 2 3 4 5 6 7 8 9 10 11 12 13 14 15 16 17 18 19 20 21 22 23 24 25
000
FTUS44 KEWX 272330
TAFSAT
TAF
KSAT 272330Z 2800/2906 16012KT P6SM BKN250
     FM280400 14012KT P6SM OVC015
     FM280600 14010KT P6SM OVC009
     FM281600 16010KT P6SM BKN015
     FM281800 16012KT P6SM OVC050=

USA.gov is the U.S. government's official web portal to all federal, state and local government web resources and services.